Ina, Illinois
Current Conditions -  °F | °C
As of 8:55 AM on Saturday 20 Dec 2014 (Local Time) from KMVN Reporting Station
Overcast Overcast  
Wind Chill: 34°   Ceiling: 5000
Heat Index: 34°   Visibility: 7mi
Dew Point: 27°   Wind: 3mph
Humidity: 75%   Direction: 110°ESE
Pressure: 30.31"   Gusts: NA
Location:  38.15°N, 88.9°W
Report Text: KMVN 201455Z AUTO 11003KT 7SM BKN050 OVC070 01/M03 A3031 RMK AO1 52010
Loading
Personal Weather Stations






























Interactive Weather Map New forecast layout! Learn more

10-Day Weather Forecast

Advertisements
Track Severe Weather on mobile